sensor_id;sensor_type;location;lat;lon;timestamp;P1;durP1;ratioP1;P2;durP2;ratioP2
67378;SDS011;54262;44.642;-0.974;2023-06-10T00:02:07;3.20;;;3.00;;
67378;SDS011;54262;44.642;-0.974;2023-06-10T00:04:33;2.40;;;2.30;;
67378;SDS011;54262;44.642;-0.974;2023-06-10T00:06:58;2.67;;;2.58;;
67378;SDS011;54262;44.642;-0.974;2023-06-10T00:09:24;2.65;;;2.55;;
67378;SDS011;54262;44.642;-0.974;2023-06-10T00:11:50;2.42;;;2.33;;
67378;SDS011;54262;44.642;-0.974;2023-06-10T00:14:16;2.47;;;2.38;;
67378;SDS011;54262;44.642;-0.974;2023-06-10T00:16:42;2.97;;;2.88;;
67378;SDS011;54262;44.642;-0.974;2023-06-10T00:19:09;2.65;;;2.55;;
67378;SDS011;54262;44.642;-0.974;2023-06-10T00:21:41;2.50;;;2.40;;
67378;SDS011;54262;44.642;-0.974;2023-06-10T00:24:10;3.20;;;3.00;;
67378;SDS011;54262;44.642;-0.974;2023-06-10T00:26:37;2.92;;;2.40;;
67378;SDS011;54262;44.642;-0.974;2023-06-10T00:29:04;2.80;;;2.70;;
67378;SDS011;54262;44.642;-0.974;2023-06-10T00:31:30;2.15;;;2.05;;
67378;SDS011;54262;44.642;-0.974;2023-06-10T00:33:56;2.88;;;2.67;;
67378;SDS011;54262;44.642;-0.974;2023-06-10T00:36:21;2.83;;;2.72;;
67378;SDS011;54262;44.642;-0.974;2023-06-10T00:38:47;3.20;;;3.10;;
67378;SDS011;54262;44.642;-0.974;2023-06-10T00:41:13;2.88;;;2.78;;
67378;SDS011;54262;44.642;-0.974;2023-06-10T00:43:39;3.20;;;3.10;;
67378;SDS011;54262;44.642;-0.974;2023-06-10T00:46:04;2.95;;;2.85;;
67378;SDS011;54262;44.642;-0.974;2023-06-10T00:48:30;2.90;;;2.80;;
67378;SDS011;54262;44.642;-0.974;2023-06-10T00:50:57;2.83;;;2.72;;
67378;SDS011;54262;44.642;-0.974;2023-06-10T00:53:24;3.38;;;3.17;;
67378;SDS011;54262;44.642;-0.974;2023-06-10T00:55:51;2.60;;;2.50;;
67378;SDS011;54262;44.642;-0.974;2023-06-10T00:58:16;2.55;;;2.45;;
67378;SDS011;54262;44.642;-0.974;2023-06-10T01:00:42;3.30;;;3.20;;
67378;SDS011;54262;44.642;-0.974;2023-06-10T01:03:10;3.50;;;3.40;;
67378;SDS011;54262;44.642;-0.974;2023-06-10T01:05:37;3.15;;;3.05;;
67378;SDS011;54262;44.642;-0.974;2023-06-10T01:08:14;2.70;;;2.60;;
67378;SDS011;54262;44.642;-0.974;2023-06-10T01:11:06;3.10;;;3.00;;
67378;SDS011;54262;44.642;-0.974;2023-06-10T01:13:36;3.30;;;3.20;;
67378;SDS011;54262;44.642;-0.974;2023-06-10T01:16:06;3.25;;;3.08;;
67378;SDS011;54262;44.642;-0.974;2023-06-10T01:18:32;3.33;;;3.22;;
67378;SDS011;54262;44.642;-0.974;2023-06-10T01:20:58;3.35;;;3.25;;
67378;SDS011;54262;44.642;-0.974;2023-06-10T01:23:26;3.15;;;3.05;;
67378;SDS011;54262;44.642;-0.974;2023-06-10T01:26:02;3.30;;;3.10;;
67378;SDS011;54262;44.642;-0.974;2023-06-10T01:34:01;3.58;;;3.38;;
67378;SDS011;54262;44.642;-0.974;2023-06-10T01:36:32;2.95;;;2.67;;
67378;SDS011;54262;44.642;-0.974;2023-06-10T01:39:00;3.17;;;3.08;;
67378;SDS011;54262;44.642;-0.974;2023-06-10T01:41:26;3.45;;;3.20;;
67378;SDS011;54262;44.642;-0.974;2023-06-10T01:43:53;3.28;;;3.17;;
67378;SDS011;54262;44.642;-0.974;2023-06-10T01:46:19;3.20;;;3.10;;
67378;SDS011;54262;44.642;-0.974;2023-06-10T01:48:46;3.40;;;3.25;;
67378;SDS011;54262;44.642;-0.974;2023-06-10T01:51:12;3.17;;;3.08;;
67378;SDS011;54262;44.642;-0.974;2023-06-10T01:53:37;3.58;;;3.28;;
67378;SDS011;54262;44.642;-0.974;2023-06-10T01:56:03;3.47;;;3.38;;
67378;SDS011;54262;44.642;-0.974;2023-06-10T01:58:29;3.20;;;3.10;;
67378;SDS011;54262;44.642;-0.974;2023-06-10T02:00:55;3.55;;;3.35;;
67378;SDS011;54262;44.642;-0.974;2023-06-10T02:03:21;3.55;;;3.45;;
67378;SDS011;54262;44.642;-0.974;2023-06-10T02:05:46;3.60;;;3.50;;
67378;SDS011;54262;44.642;-0.974;2023-06-10T02:08:12;3.78;;;3.58;;
67378;SDS011;54262;44.642;-0.974;2023-06-10T02:10:38;3.20;;;3.00;;
67378;SDS011;54262;44.642;-0.974;2023-06-10T02:13:03;3.95;;;3.20;;
67378;SDS011;54262;44.642;-0.974;2023-06-10T02:15:30;3.03;;;2.92;;
67378;SDS011;54262;44.642;-0.974;2023-06-10T02:17:55;2.80;;;2.70;;
67378;SDS011;54262;44.642;-0.974;2023-06-10T02:20:21;3.00;;;2.90;;
67378;SDS011;54262;44.642;-0.974;2023-06-10T02:22:47;3.25;;;3.08;;
67378;SDS011;54262;44.642;-0.974;2023-06-10T02:25:15;3.22;;;3.10;;
67378;SDS011;54262;44.642;-0.974;2023-06-10T02:27:42;3.28;;;3.17;;
67378;SDS011;54262;44.642;-0.974;2023-06-10T02:30:11;3.30;;;3.10;;
67378;SDS011;54262;44.642;-0.974;2023-06-10T02:32:38;3.35;;;3.25;;
67378;SDS011;54262;44.642;-0.974;2023-06-10T02:35:03;2.78;;;2.67;;
67378;SDS011;54262;44.642;-0.974;2023-06-10T02:37:30;3.20;;;3.10;;
67378;SDS011;54262;44.642;-0.974;2023-06-10T02:39:56;3.05;;;2.95;;
67378;SDS011;54262;44.642;-0.974;2023-06-10T02:42:21;3.25;;;3.13;;
67378;SDS011;54262;44.642;-0.974;2023-06-10T02:44:47;3.13;;;3.03;;
67378;SDS011;54262;44.642;-0.974;2023-06-10T02:47:12;3.15;;;3.05;;
67378;SDS011;54262;44.642;-0.974;2023-06-10T02:49:38;3.20;;;3.10;;
67378;SDS011;54262;44.642;-0.974;2023-06-10T02:52:05;3.35;;;3.25;;
67378;SDS011;54262;44.642;-0.974;2023-06-10T02:54:32;3.20;;;3.10;;
67378;SDS011;54262;44.642;-0.974;2023-06-10T02:56:57;3.53;;;3.42;;
67378;SDS011;54262;44.642;-0.974;2023-06-10T02:59:23;2.97;;;2.88;;
67378;SDS011;54262;44.642;-0.974;2023-06-10T03:01:49;2.95;;;2.70;;
67378;SDS011;54262;44.642;-0.974;2023-06-10T03:04:14;2.90;;;2.80;;
67378;SDS011;54262;44.642;-0.974;2023-06-10T03:06:40;3.25;;;3.05;;
67378;SDS011;54262;44.642;-0.974;2023-06-10T03:09:06;3.03;;;2.92;;
67378;SDS011;54262;44.642;-0.974;2023-06-10T03:11:35;3.40;;;3.30;;
67378;SDS011;54262;44.642;-0.974;2023-06-10T03:14:01;2.55;;;2.45;;
67378;SDS011;54262;44.642;-0.974;2023-06-10T03:16:27;3.05;;;2.95;;
67378;SDS011;54262;44.642;-0.974;2023-06-10T03:18:52;2.83;;;2.72;;
67378;SDS011;54262;44.642;-0.974;2023-06-10T03:21:18;2.60;;;2.50;;
67378;SDS011;54262;44.642;-0.974;2023-06-10T03:23:44;3.15;;;3.03;;
67378;SDS011;54262;44.642;-0.974;2023-06-10T03:26:12;2.80;;;2.70;;
67378;SDS011;54262;44.642;-0.974;2023-06-10T03:28:40;2.90;;;2.80;;
67378;SDS011;54262;44.642;-0.974;2023-06-10T03:31:06;3.20;;;3.10;;
67378;SDS011;54262;44.642;-0.974;2023-06-10T03:33:32;3.17;;;3.08;;
67378;SDS011;54262;44.642;-0.974;2023-06-10T03:35:58;3.25;;;3.15;;
67378;SDS011;54262;44.642;-0.974;2023-06-10T03:38:23;2.83;;;2.72;;
67378;SDS011;54262;44.642;-0.974;2023-06-10T03:40:49;2.80;;;2.67;;
67378;SDS011;54262;44.642;-0.974;2023-06-10T03:43:15;2.70;;;2.60;;
67378;SDS011;54262;44.642;-0.974;2023-06-10T03:45:41;3.45;;;3.35;;
67378;SDS011;54262;44.642;-0.974;2023-06-10T03:48:09;2.90;;;2.80;;
67378;SDS011;54262;44.642;-0.974;2023-06-10T03:50:36;3.20;;;3.10;;
67378;SDS011;54262;44.642;-0.974;2023-06-10T03:53:01;3.08;;;2.97;;
67378;SDS011;54262;44.642;-0.974;2023-06-10T03:55:27;3.10;;;3.00;;
67378;SDS011;54262;44.642;-0.974;2023-06-10T03:57:53;3.10;;;3.00;;
67378;SDS011;54262;44.642;-0.974;2023-06-10T04:00:19;3.05;;;2.95;;
67378;SDS011;54262;44.642;-0.974;2023-06-10T04:02:46;3.25;;;3.15;;
67378;SDS011;54262;44.642;-0.974;2023-06-10T04:05:15;2.88;;;2.78;;
67378;SDS011;54262;44.642;-0.974;2023-06-10T04:07:42;2.85;;;2.75;;
67378;SDS011;54262;44.642;-0.974;2023-06-10T04:10:09;3.30;;;3.10;;
67378;SDS011;54262;44.642;-0.974;2023-06-10T04:12:36;3.17;;;3.08;;
67378;SDS011;54262;44.642;-0.974;2023-06-10T04:15:02;2.70;;;2.60;;
67378;SDS011;54262;44.642;-0.974;2023-06-10T04:17:29;3.05;;;2.95;;
67378;SDS011;54262;44.642;-0.974;2023-06-10T04:19:55;2.72;;;2.63;;
67378;SDS011;54262;44.642;-0.974;2023-06-10T04:22:21;3.28;;;3.17;;
67378;SDS011;54262;44.642;-0.974;2023-06-10T04:24:47;3.30;;;3.20;;
67378;SDS011;54262;44.642;-0.974;2023-06-10T04:27:15;3.40;;;3.22;;
67378;SDS011;54262;44.642;-0.974;2023-06-10T04:29:43;3.40;;;3.20;;
67378;SDS011;54262;44.642;-0.974;2023-06-10T04:32:09;3.22;;;3.03;;
67378;SDS011;54262;44.642;-0.974;2023-06-10T04:34:35;2.80;;;2.70;;
67378;SDS011;54262;44.642;-0.974;2023-06-10T04:37:01;3.22;;;3.00;;
67378;SDS011;54262;44.642;-0.974;2023-06-10T04:39:27;3.40;;;3.20;;
67378;SDS011;54262;44.642;-0.974;2023-06-10T04:41:53;3.25;;;3.13;;
67378;SDS011;54262;44.642;-0.974;2023-06-10T04:44:18;3.80;;;3.63;;
67378;SDS011;54262;44.642;-0.974;2023-06-10T04:46:44;2.90;;;2.80;;
67378;SDS011;54262;44.642;-0.974;2023-06-10T04:49:10;2.85;;;2.75;;
67378;SDS011;54262;44.642;-0.974;2023-06-10T04:51:38;3.78;;;3.60;;
67378;SDS011;54262;44.642;-0.974;2023-06-10T04:54:04;3.38;;;3.17;;
67378;SDS011;54262;44.642;-0.974;2023-06-10T04:56:30;3.13;;;3.03;;
67378;SDS011;54262;44.642;-0.974;2023-06-10T04:58:56;3.30;;;3.20;;
67378;SDS011;54262;44.642;-0.974;2023-06-10T05:01:22;3.58;;;3.38;;
67378;SDS011;54262;44.642;-0.974;2023-06-10T05:03:48;4.35;;;3.97;;
67378;SDS011;54262;44.642;-0.974;2023-06-10T05:06:13;3.58;;;3.45;;
67378;SDS011;54262;44.642;-0.974;2023-06-10T05:08:39;4.03;;;3.83;;
67378;SDS011;54262;44.642;-0.974;2023-06-10T05:11:05;3.88;;;3.67;;
67378;SDS011;54262;44.642;-0.974;2023-06-10T05:13:31;4.00;;;3.80;;
67378;SDS011;54262;44.642;-0.974;2023-06-10T05:15:57;3.50;;;3.40;;
67378;SDS011;54262;44.642;-0.974;2023-06-10T05:18:23;3.53;;;3.38;;
67378;SDS011;54262;44.642;-0.974;2023-06-10T05:20:49;3.85;;;3.65;;
67378;SDS011;54262;44.642;-0.974;2023-06-10T05:23:14;3.90;;;3.70;;
67378;SDS011;54262;44.642;-0.974;2023-06-10T05:25:40;4.40;;;4.20;;
67378;SDS011;54262;44.642;-0.974;2023-06-10T05:28:09;3.55;;;3.35;;
67378;SDS011;54262;44.642;-0.974;2023-06-10T05:30:37;4.20;;;4.00;;
67378;SDS011;54262;44.642;-0.974;2023-06-10T05:33:03;4.50;;;4.30;;
67378;SDS011;54262;44.642;-0.974;2023-06-10T05:35:29;4.18;;;3.97;;
67378;SDS011;54262;44.642;-0.974;2023-06-10T05:37:55;4.07;;;3.85;;
67378;SDS011;54262;44.642;-0.974;2023-06-10T05:40:21;4.20;;;4.00;;
67378;SDS011;54262;44.642;-0.974;2023-06-10T05:42:48;3.75;;;3.55;;
67378;SDS011;54262;44.642;-0.974;2023-06-10T05:45:14;4.20;;;4.00;;
67378;SDS011;54262;44.642;-0.974;2023-06-10T05:47:40;3.72;;;3.63;;
67378;SDS011;54262;44.642;-0.974;2023-06-10T05:50:06;3.80;;;3.60;;
67378;SDS011;54262;44.642;-0.974;2023-06-10T05:52:33;4.18;;;4.03;;
67378;SDS011;54262;44.642;-0.974;2023-06-10T05:55:05;4.22;;;4.03;;
67378;SDS011;54262;44.642;-0.974;2023-06-10T05:57:31;4.32;;;4.10;;
67378;SDS011;54262;44.642;-0.974;2023-06-10T05:59:57;3.67;;;3.55;;
67378;SDS011;54262;44.642;-0.974;2023-06-10T06:02:22;3.60;;;3.50;;
67378;SDS011;54262;44.642;-0.974;2023-06-10T06:04:48;4.05;;;3.85;;
67378;SDS011;54262;44.642;-0.974;2023-06-10T06:07:14;3.80;;;3.60;;
67378;SDS011;54262;44.642;-0.974;2023-06-10T06:09:40;3.53;;;3.42;;
67378;SDS011;54262;44.642;-0.974;2023-06-10T06:12:05;3.45;;;3.35;;
67378;SDS011;54262;44.642;-0.974;2023-06-10T06:14:32;3.60;;;3.50;;
67378;SDS011;54262;44.642;-0.974;2023-06-10T06:17:01;4.28;;;4.07;;
67378;SDS011;54262;44.642;-0.974;2023-06-10T06:19:27;3.40;;;3.30;;
67378;SDS011;54262;44.642;-0.974;2023-06-10T06:21:53;3.58;;;3.47;;
67378;SDS011;54262;44.642;-0.974;2023-06-10T06:24:18;3.58;;;3.45;;
67378;SDS011;54262;44.642;-0.974;2023-06-10T06:26:44;4.03;;;3.85;;
67378;SDS011;54262;44.642;-0.974;2023-06-10T06:29:12;4.47;;;4.28;;
67378;SDS011;54262;44.642;-0.974;2023-06-10T06:31:40;3.72;;;3.63;;
67378;SDS011;54262;44.642;-0.974;2023-06-10T06:34:06;4.35;;;4.05;;
67378;SDS011;54262;44.642;-0.974;2023-06-10T06:36:31;4.00;;;3.80;;
67378;SDS011;54262;44.642;-0.974;2023-06-10T06:38:57;3.17;;;3.08;;
67378;SDS011;54262;44.642;-0.974;2023-06-10T06:41:23;3.83;;;3.63;;
67378;SDS011;54262;44.642;-0.974;2023-06-10T06:43:51;4.00;;;3.90;;
67378;SDS011;54262;44.642;-0.974;2023-06-10T06:46:17;3.90;;;3.70;;
67378;SDS011;54262;44.642;-0.974;2023-06-10T06:48:42;3.38;;;3.28;;
67378;SDS011;54262;44.642;-0.974;2023-06-10T06:51:08;3.53;;;3.35;;
67378;SDS011;54262;44.642;-0.974;2023-06-10T06:53:34;3.65;;;3.45;;
67378;SDS011;54262;44.642;-0.974;2023-06-10T06:56:00;3.65;;;3.53;;
67378;SDS011;54262;44.642;-0.974;2023-06-10T06:58:27;3.55;;;3.35;;
67378;SDS011;54262;44.642;-0.974;2023-06-10T07:00:52;3.42;;;3.33;;
67378;SDS011;54262;44.642;-0.974;2023-06-10T07:03:18;3.10;;;3.00;;
67378;SDS011;54262;44.642;-0.974;2023-06-10T07:05:44;3.80;;;3.70;;
67378;SDS011;54262;44.642;-0.974;2023-06-10T07:08:09;3.30;;;3.20;;
67378;SDS011;54262;44.642;-0.974;2023-06-10T07:10:37;3.28;;;3.17;;
67378;SDS011;54262;44.642;-0.974;2023-06-10T07:13:02;3.30;;;3.20;;
67378;SDS011;54262;44.642;-0.974;2023-06-10T07:15:28;2.97;;;2.88;;
67378;SDS011;54262;44.642;-0.974;2023-06-10T07:17:54;3.13;;;3.03;;
67378;SDS011;54262;44.642;-0.974;2023-06-10T07:20:20;3.38;;;3.28;;
67378;SDS011;54262;44.642;-0.974;2023-06-10T07:22:46;3.50;;;3.30;;
67378;SDS011;54262;44.642;-0.974;2023-06-10T07:25:11;2.95;;;2.85;;
67378;SDS011;54262;44.642;-0.974;2023-06-10T07:27:37;3.47;;;3.30;;
67378;SDS011;54262;44.642;-0.974;2023-06-10T07:30:08;3.28;;;3.08;;
67378;SDS011;54262;44.642;-0.974;2023-06-10T07:32:37;2.92;;;2.83;;
67378;SDS011;54262;44.642;-0.974;2023-06-10T07:35:03;3.55;;;3.45;;
67378;SDS011;54262;44.642;-0.974;2023-06-10T07:37:30;3.30;;;3.20;;
67378;SDS011;54262;44.642;-0.974;2023-06-10T07:39:56;3.72;;;3.63;;
67378;SDS011;54262;44.642;-0.974;2023-06-10T07:42:22;3.00;;;2.90;;
67378;SDS011;54262;44.642;-0.974;2023-06-10T07:44:48;3.38;;;3.28;;
67378;SDS011;54262;44.642;-0.974;2023-06-10T07:47:13;3.22;;;3.08;;
67378;SDS011;54262;44.642;-0.974;2023-06-10T07:49:39;3.25;;;3.13;;
67378;SDS011;54262;44.642;-0.974;2023-06-10T07:52:05;3.15;;;3.05;;
67378;SDS011;54262;44.642;-0.974;2023-06-10T07:54:31;3.25;;;3.15;;
67378;SDS011;54262;44.642;-0.974;2023-06-10T07:56:57;3.00;;;2.90;;
67378;SDS011;54262;44.642;-0.974;2023-06-10T07:59:23;3.70;;;3.40;;
67378;SDS011;54262;44.642;-0.974;2023-06-10T08:01:50;3.25;;;3.15;;
67378;SDS011;54262;44.642;-0.974;2023-06-10T08:04:16;3.70;;;3.50;;
67378;SDS011;54262;44.642;-0.974;2023-06-10T08:06:41;4.32;;;3.88;;
67378;SDS011;54262;44.642;-0.974;2023-06-10T08:09:07;3.90;;;3.50;;
67378;SDS011;54262;44.642;-0.974;2023-06-10T08:11:33;3.33;;;3.22;;
67378;SDS011;54262;44.642;-0.974;2023-06-10T08:13:58;3.22;;;3.13;;
67378;SDS011;54262;44.642;-0.974;2023-06-10T08:16:24;2.83;;;2.72;;
67378;SDS011;54262;44.642;-0.974;2023-06-10T08:18:50;2.90;;;2.80;;
67378;SDS011;54262;44.642;-0.974;2023-06-10T08:21:15;3.45;;;3.35;;
67378;SDS011;54262;44.642;-0.974;2023-06-10T08:23:41;3.38;;;3.28;;
67378;SDS011;54262;44.642;-0.974;2023-06-10T08:26:07;3.20;;;3.10;;
67378;SDS011;54262;44.642;-0.974;2023-06-10T08:28:32;3.42;;;3.22;;
67378;SDS011;54262;44.642;-0.974;2023-06-10T08:31:00;3.15;;;3.05;;
67378;SDS011;54262;44.642;-0.974;2023-06-10T08:33:28;3.58;;;3.38;;
67378;SDS011;54262;44.642;-0.974;2023-06-10T08:35:54;3.58;;;3.45;;
67378;SDS011;54262;44.642;-0.974;2023-06-10T08:38:19;3.15;;;3.05;;
67378;SDS011;54262;44.642;-0.974;2023-06-10T08:40:45;3.20;;;3.00;;
67378;SDS011;54262;44.642;-0.974;2023-06-10T08:43:22;3.58;;;3.45;;
67378;SDS011;54262;44.642;-0.974;2023-06-10T08:46:00;3.60;;;3.40;;
67378;SDS011;54262;44.642;-0.974;2023-06-10T08:48:29;3.65;;;3.55;;
67378;SDS011;54262;44.642;-0.974;2023-06-10T08:50:56;3.30;;;3.20;;
67378;SDS011;54262;44.642;-0.974;2023-06-10T08:53:23;3.28;;;3.17;;
67378;SDS011;54262;44.642;-0.974;2023-06-10T08:55:51;3.30;;;3.20;;
67378;SDS011;54262;44.642;-0.974;2023-06-10T08:58:18;3.67;;;3.47;;
67378;SDS011;54262;44.642;-0.974;2023-06-10T09:00:44;3.75;;;3.45;;
67378;SDS011;54262;44.642;-0.974;2023-06-10T09:03:11;3.47;;;3.38;;
67378;SDS011;54262;44.642;-0.974;2023-06-10T09:05:37;4.03;;;3.83;;
67378;SDS011;54262;44.642;-0.974;2023-06-10T09:08:04;3.30;;;3.20;;
67378;SDS011;54262;44.642;-0.974;2023-06-10T09:10:31;3.63;;;3.45;;
67378;SDS011;54262;44.642;-0.974;2023-06-10T09:12:57;3.60;;;3.50;;
67378;SDS011;54262;44.642;-0.974;2023-06-10T09:15:23;4.47;;;3.60;;
67378;SDS011;54262;44.642;-0.974;2023-06-10T09:17:49;4.18;;;3.80;;
67378;SDS011;54262;44.642;-0.974;2023-06-10T09:20:16;3.55;;;3.35;;
67378;SDS011;54262;44.642;-0.974;2023-06-10T09:22:42;3.70;;;3.53;;
67378;SDS011;54262;44.642;-0.974;2023-06-10T09:25:11;3.35;;;3.17;;
67378;SDS011;54262;44.642;-0.974;2023-06-10T09:27:45;3.70;;;3.50;;
67378;SDS011;54262;44.642;-0.974;2023-06-10T09:30:35;4.05;;;3.85;;
67378;SDS011;54262;44.642;-0.974;2023-06-10T09:33:02;3.40;;;3.30;;
67378;SDS011;54262;44.642;-0.974;2023-06-10T09:35:36;3.33;;;3.22;;
67378;SDS011;54262;44.642;-0.974;2023-06-10T09:38:09;3.65;;;3.47;;
67378;SDS011;54262;44.642;-0.974;2023-06-10T09:40:40;3.17;;;2.97;;
67378;SDS011;54262;44.642;-0.974;2023-06-10T09:43:16;4.25;;;4.05;;
67378;SDS011;54262;44.642;-0.974;2023-06-10T09:45:42;3.75;;;3.55;;
67378;SDS011;54262;44.642;-0.974;2023-06-10T09:48:08;3.50;;;3.30;;
67378;SDS011;54262;44.642;-0.974;2023-06-10T09:50:34;3.30;;;3.15;;
67378;SDS011;54262;44.642;-0.974;2023-06-10T09:53:06;3.47;;;3.35;;
67378;SDS011;54262;44.642;-0.974;2023-06-10T09:55:32;3.25;;;3.15;;
67378;SDS011;54262;44.642;-0.974;2023-06-10T09:57:59;3.85;;;3.65;;
67378;SDS011;54262;44.642;-0.974;2023-06-10T10:00:25;3.38;;;3.17;;
67378;SDS011;54262;44.642;-0.974;2023-06-10T10:02:51;3.75;;;3.60;;
67378;SDS011;54262;44.642;-0.974;2023-06-10T10:05:19;3.67;;;3.47;;
67378;SDS011;54262;44.642;-0.974;2023-06-10T10:07:46;3.05;;;2.95;;
67378;SDS011;54262;44.642;-0.974;2023-06-10T10:10:13;3.50;;;3.30;;
67378;SDS011;54262;44.642;-0.974;2023-06-10T10:12:40;3.83;;;3.63;;
67378;SDS011;54262;44.642;-0.974;2023-06-10T10:15:07;3.25;;;3.15;;
67378;SDS011;54262;44.642;-0.974;2023-06-10T10:17:34;4.03;;;3.83;;
67378;SDS011;54262;44.642;-0.974;2023-06-10T10:20:05;3.92;;;3.63;;
67378;SDS011;54262;44.642;-0.974;2023-06-10T10:22:35;3.47;;;3.28;;
67378;SDS011;54262;44.642;-0.974;2023-06-10T10:25:05;3.80;;;3.50;;
67378;SDS011;54262;44.642;-0.974;2023-06-10T10:27:36;3.67;;;3.58;;
67378;SDS011;54262;44.642;-0.974;2023-06-10T10:30:08;3.70;;;3.40;;
67378;SDS011;54262;44.642;-0.974;2023-06-10T10:32:38;3.72;;;3.53;;
67378;SDS011;54262;44.642;-0.974;2023-06-10T10:35:19;3.60;;;3.40;;
67378;SDS011;54262;44.642;-0.974;2023-06-10T10:37:50;3.65;;;3.40;;
67378;SDS011;54262;44.642;-0.974;2023-06-10T10:40:17;3.63;;;3.42;;
67378;SDS011;54262;44.642;-0.974;2023-06-10T10:42:44;3.20;;;3.10;;
67378;SDS011;54262;44.642;-0.974;2023-06-10T10:45:10;3.20;;;3.10;;
67378;SDS011;54262;44.642;-0.974;2023-06-10T10:47:36;3.30;;;3.20;;
67378;SDS011;54262;44.642;-0.974;2023-06-10T10:50:12;3.25;;;3.05;;
67378;SDS011;54262;44.642;-0.974;2023-06-10T10:52:52;3.10;;;2.88;;
67378;SDS011;54262;44.642;-0.974;2023-06-10T10:55:24;3.28;;;3.17;;
67378;SDS011;54262;44.642;-0.974;2023-06-10T10:57:55;3.17;;;2.97;;
67378;SDS011;54262;44.642;-0.974;2023-06-10T11:00:27;3.95;;;3.55;;
67378;SDS011;54262;44.642;-0.974;2023-06-10T11:05:36;3.20;;;3.10;;
67378;SDS011;54262;44.642;-0.974;2023-06-10T11:08:07;3.53;;;3.42;;
67378;SDS011;54262;44.642;-0.974;2023-06-10T11:10:34;3.55;;;3.35;;
67378;SDS011;54262;44.642;-0.974;2023-06-10T11:13:13;3.63;;;3.42;;
67378;SDS011;54262;44.642;-0.974;2023-06-10T11:15:46;3.03;;;2.92;;
67378;SDS011;54262;44.642;-0.974;2023-06-10T11:20:54;2.97;;;2.88;;
67378;SDS011;54262;44.642;-0.974;2023-06-10T11:26:08;3.20;;;3.10;;
67378;SDS011;54262;44.642;-0.974;2023-06-10T11:28:34;3.72;;;3.53;;
67378;SDS011;54262;44.642;-0.974;2023-06-10T11:31:00;2.95;;;2.85;;
67378;SDS011;54262;44.642;-0.974;2023-06-10T11:33:26;2.83;;;2.72;;
67378;SDS011;54262;44.642;-0.974;2023-06-10T11:35:55;3.10;;;3.00;;
67378;SDS011;54262;44.642;-0.974;2023-06-10T11:38:24;3.90;;;3.35;;
67378;SDS011;54262;44.642;-0.974;2023-06-10T11:40:51;3.03;;;2.92;;
67378;SDS011;54262;44.642;-0.974;2023-06-10T11:43:18;2.67;;;2.58;;
67378;SDS011;54262;44.642;-0.974;2023-06-10T11:45:44;3.17;;;2.97;;
67378;SDS011;54262;44.642;-0.974;2023-06-10T11:48:10;3.35;;;3.17;;
67378;SDS011;54262;44.642;-0.974;2023-06-10T11:50:37;2.67;;;2.58;;
67378;SDS011;54262;44.642;-0.974;2023-06-10T11:53:03;3.17;;;2.97;;
67378;SDS011;54262;44.642;-0.974;2023-06-10T12:00:52;2.72;;;2.53;;
67378;SDS011;54262;44.642;-0.974;2023-06-10T12:03:19;2.45;;;2.35;;
67378;SDS011;54262;44.642;-0.974;2023-06-10T12:06:00;2.90;;;2.80;;
67378;SDS011;54262;44.642;-0.974;2023-06-10T12:08:29;2.58;;;2.47;;
67378;SDS011;54262;44.642;-0.974;2023-06-10T12:10:55;2.67;;;2.58;;
67378;SDS011;54262;44.642;-0.974;2023-06-10T12:13:22;2.53;;;2.42;;
67378;SDS011;54262;44.642;-0.974;2023-06-10T12:15:51;2.53;;;2.42;;
67378;SDS011;54262;44.642;-0.974;2023-06-10T12:20:44;2.63;;;2.53;;
67378;SDS011;54262;44.642;-0.974;2023-06-10T12:23:10;2.70;;;2.60;;
67378;SDS011;54262;44.642;-0.974;2023-06-10T12:25:37;2.80;;;2.70;;
67378;SDS011;54262;44.642;-0.974;2023-06-10T12:28:03;2.53;;;2.42;;
67378;SDS011;54262;44.642;-0.974;2023-06-10T12:30:29;2.72;;;2.53;;
67378;SDS011;54262;44.642;-0.974;2023-06-10T12:32:56;2.47;;;2.38;;
67378;SDS011;54262;44.642;-0.974;2023-06-10T12:35:26;2.58;;;2.47;;
67378;SDS011;54262;44.642;-0.974;2023-06-10T12:38:05;2.88;;;2.78;;
67378;SDS011;54262;44.642;-0.974;2023-06-10T12:40:36;2.70;;;2.60;;
67378;SDS011;54262;44.642;-0.974;2023-06-10T12:43:05;2.60;;;2.50;;
67378;SDS011;54262;44.642;-0.974;2023-06-10T12:45:35;2.90;;;2.70;;
67378;SDS011;54262;44.642;-0.974;2023-06-10T12:48:09;2.35;;;2.25;;
67378;SDS011;54262;44.642;-0.974;2023-06-10T12:50:36;2.55;;;2.45;;
67378;SDS011;54262;44.642;-0.974;2023-06-10T12:53:04;2.38;;;2.28;;
67378;SDS011;54262;44.642;-0.974;2023-06-10T12:55:30;2.58;;;2.47;;
67378;SDS011;54262;44.642;-0.974;2023-06-10T12:57:57;2.42;;;2.33;;
67378;SDS011;54262;44.642;-0.974;2023-06-10T13:00:23;2.55;;;2.45;;
67378;SDS011;54262;44.642;-0.974;2023-06-10T13:02:51;2.88;;;2.78;;
67378;SDS011;54262;44.642;-0.974;2023-06-10T13:05:18;2.20;;;2.10;;
67378;SDS011;54262;44.642;-0.974;2023-06-10T13:07:45;2.78;;;2.67;;
67378;SDS011;54262;44.642;-0.974;2023-06-10T13:10:12;2.15;;;2.05;;
67378;SDS011;54262;44.642;-0.974;2023-06-10T13:12:39;2.40;;;2.30;;
67378;SDS011;54262;44.642;-0.974;2023-06-10T13:15:04;2.78;;;2.55;;
67378;SDS011;54262;44.642;-0.974;2023-06-10T13:17:31;2.33;;;2.22;;
67378;SDS011;54262;44.642;-0.974;2023-06-10T13:19:56;2.20;;;2.10;;
67378;SDS011;54262;44.642;-0.974;2023-06-10T13:22:22;2.28;;;2.17;;
67378;SDS011;54262;44.642;-0.974;2023-06-10T13:24:49;2.35;;;2.25;;
67378;SDS011;54262;44.642;-0.974;2023-06-10T13:27:14;2.65;;;2.55;;
67378;SDS011;54262;44.642;-0.974;2023-06-10T13:29:40;2.13;;;2.03;;
67378;SDS011;54262;44.642;-0.974;2023-06-10T13:32:06;2.30;;;2.20;;
67378;SDS011;54262;44.642;-0.974;2023-06-10T13:34:32;2.22;;;2.13;;
67378;SDS011;54262;44.642;-0.974;2023-06-10T13:36:58;2.28;;;2.17;;
67378;SDS011;54262;44.642;-0.974;2023-06-10T13:39:26;2.30;;;2.20;;
67378;SDS011;54262;44.642;-0.974;2023-06-10T13:41:54;2.13;;;2.03;;
67378;SDS011;54262;44.642;-0.974;2023-06-10T13:44:20;2.20;;;2.10;;
67378;SDS011;54262;44.642;-0.974;2023-06-10T13:46:45;2.10;;;2.00;;
67378;SDS011;54262;44.642;-0.974;2023-06-10T13:49:11;2.08;;;1.98;;
67378;SDS011;54262;44.642;-0.974;2023-06-10T13:51:37;2.30;;;2.20;;
67378;SDS011;54262;44.642;-0.974;2023-06-10T13:54:03;2.20;;;2.10;;
67378;SDS011;54262;44.642;-0.974;2023-06-10T13:56:28;1.52;;;1.52;;
67378;SDS011;54262;44.642;-0.974;2023-06-10T13:58:54;1.60;;;1.50;;
67378;SDS011;54262;44.642;-0.974;2023-06-10T14:01:20;1.98;;;1.90;;
67378;SDS011;54262;44.642;-0.974;2023-06-10T14:03:45;2.00;;;1.90;;
67378;SDS011;54262;44.642;-0.974;2023-06-10T14:06:11;1.77;;;1.67;;
67378;SDS011;54262;44.642;-0.974;2023-06-10T14:08:40;1.80;;;1.80;;
67378;SDS011;54262;44.642;-0.974;2023-06-10T14:11:06;1.42;;;1.42;;
67378;SDS011;54262;44.642;-0.974;2023-06-10T14:13:31;1.90;;;1.80;;
67378;SDS011;54262;44.642;-0.974;2023-06-10T14:15:58;2.08;;;2.03;;
67378;SDS011;54262;44.642;-0.974;2023-06-10T14:18:27;1.52;;;1.42;;
67378;SDS011;54262;44.642;-0.974;2023-06-10T14:20:53;1.85;;;1.80;;
67378;SDS011;54262;44.642;-0.974;2023-06-10T14:23:19;1.38;;;1.38;;
67378;SDS011;54262;44.642;-0.974;2023-06-10T14:25:44;1.30;;;1.30;;
67378;SDS011;54262;44.642;-0.974;2023-06-10T14:28:10;1.52;;;1.52;;
67378;SDS011;54262;44.642;-0.974;2023-06-10T14:30:36;1.52;;;1.42;;
67378;SDS011;54262;44.642;-0.974;2023-06-10T14:33:02;1.70;;;1.60;;
67378;SDS011;54262;44.642;-0.974;2023-06-10T14:35:27;1.67;;;1.60;;
67378;SDS011;54262;44.642;-0.974;2023-06-10T14:37:53;1.33;;;1.33;;
67378;SDS011;54262;44.642;-0.974;2023-06-10T14:40:21;1.85;;;1.75;;
67378;SDS011;54262;44.642;-0.974;2023-06-10T14:42:49;1.50;;;1.50;;
67378;SDS011;54262;44.642;-0.974;2023-06-10T14:45:14;1.48;;;1.45;;
67378;SDS011;54262;44.642;-0.974;2023-06-10T14:47:40;1.45;;;1.35;;
67378;SDS011;54262;44.642;-0.974;2023-06-10T14:50:06;1.40;;;1.40;;
67378;SDS011;54262;44.642;-0.974;2023-06-10T14:52:32;1.75;;;1.65;;
67378;SDS011;54262;44.642;-0.974;2023-06-10T14:54:58;1.50;;;1.50;;